Aérodrome :
LOGIN :

S'inscrire | Disclaimer

   EN    FR    IT 

 










Légende :    VFR   VFR Marginal   IFR   IFR Intensif   IFR Très Intensif
Visi : 
Plafond : 
>= 8 km
>= 3000ft
5 à 8 km
1000 à 3000 ft
1500m à 5 km
500 à 1000 ft
800 à 1500m
200 à 500 ft
< 800m
< 200 ft
Symboles :   Orages  Brouillard  Fortes neiges  Fortes précipitations  Vent > 20 kt
SIGMETs :   Divers  Orages  Givrage  Turbulence  Onde Orograph.  Cendres Volcan.







- Altitude de l'aérodrome : 1 ft
- Voir les cartes d'approche


EGCK - Caernarfon

DERNIER METAR :
  • 230850Z 19010KT 9999 7000S OVC014 16/15 Q1023

METARs EXPIRÉS :
  • 230820Z 19010KT 9999 8000S -RA OVC009 16/15 Q1023
  • 230750Z AUTO 19010KT 9999 OVC010/// 16/15 Q1023
  • 230720Z AUTO 21011KT 6000 -RA BKN003/// OVC013/// 16/15 Q1023
  • 230650Z AUTO 22009KT 9999 BKN007/// OVC016/// 16/15 Q1023
  • 230620Z AUTO 21010KT 9999 OVC008/// 16/15 Q1023

TAF TAF EGCK
Valide du 23 à 09h jusqu'au 23 à 18h UTC


230757Z 2309/2318 20008KT 9999 SCT008
TEMPO 2309/2312 BKN008
PROB30
TEMPO 2309/2312 6000 -RADZ BKN003
Pas de NOTAMs connus pour ce terrain.



MET'MAP, la Météo Aéronautique d'un coup d'oeil ! - Copyright ORBIFLY Décembre 2007 - Disclaimer

ORBIFLY MET'MAP TEAM :

Programmation & Développement : Alexandra Zaïnal
Conception & Développement : Baudouin d'Aumeries
Co-Programmation & Développement : Marc-Olivier Méhu
Soutien technique & logistique : Manuel Goepfert

Contact : metmap@orbifly.com




SOURCES & CREDITS :

   NOAA